createdAt,value
2019-02-24T18:37:36.418Z,9.5
2019-02-24T18:38:36.417Z,6.6
2019-02-24T18:39:36.394Z,6.6
2019-02-24T18:40:36.453Z,6.6
2019-02-24T18:41:36.443Z,3.9
2019-02-24T18:42:36.823Z,9.5
2019-02-24T18:43:36.592Z,6.6
2019-02-24T18:44:38.473Z,6.6
2019-02-24T18:45:36.772Z,6.6
2019-02-24T18:46:36.430Z,9.5
2019-02-24T18:47:36.425Z,9.5
2019-02-24T18:48:36.394Z,9.5
2019-02-24T18:49:36.345Z,12.4
2019-02-24T18:50:36.479Z,9.5
2019-02-24T18:51:36.483Z,9.5
2019-02-24T18:52:36.426Z,12.4
2019-02-24T18:53:36.472Z,12.4
2019-02-24T18:54:37.260Z,9.5
2019-02-24T18:55:36.481Z,12.4
2019-02-24T18:56:36.428Z,9.5
2019-02-24T18:57:36.493Z,9.5
2019-02-24T18:58:36.482Z,9.5
2019-02-24T18:59:36.386Z,12.4
2019-02-24T19:00:36.403Z,9.5
2019-02-24T19:01:36.480Z,9.5
2019-02-24T19:02:36.444Z,12.4
2019-02-24T19:03:36.416Z,9.5
2019-02-24T19:04:36.432Z,9.5
2019-02-24T19:05:36.396Z,12.4
2019-02-24T19:06:41.759Z,12.4
2019-02-24T19:07:36.436Z,12.4
2019-02-24T19:08:36.393Z,12.4
2019-02-24T19:09:42.261Z,15.4
2019-02-24T19:10:41.361Z,12.4
2019-02-24T19:11:41.234Z,9.5
2019-02-24T19:12:41.115Z,6.6
2019-02-24T19:13:41.137Z,1.8
2019-02-24T19:14:37.264Z,3.9
2019-02-24T19:15:40.890Z,3.9
2019-02-24T19:16:37.330Z,1.8
2019-02-24T19:17:38.208Z,0
2019-02-24T19:18:36.497Z,3.9
2019-02-24T19:19:36.628Z,1.8
2019-02-24T19:20:36.802Z,3.9
2019-02-24T19:21:36.553Z,3.9
2019-02-24T19:22:36.642Z,6.6
2019-02-24T19:23:36.623Z,3.9
2019-02-24T19:24:38.529Z,0
2019-02-24T19:25:36.531Z,3.9
2019-02-24T19:26:36.545Z,6.6
2019-02-24T19:27:36.652Z,3.9
2019-02-24T19:28:36.523Z,6.6
2019-02-24T19:29:36.740Z,9.5
2019-02-24T19:30:36.590Z,12.4
2019-02-24T19:31:36.473Z,9.5
2019-02-24T19:32:36.606Z,9.5
2019-02-24T19:33:36.477Z,6.6
2019-02-24T19:34:36.623Z,9.5
2019-02-24T19:35:36.582Z,6.6
2019-02-24T19:36:36.513Z,9.5
2019-02-24T19:37:36.615Z,6.6
2019-02-24T19:38:36.582Z,3.9
2019-02-24T19:39:36.653Z,12.4
2019-02-24T19:40:36.920Z,3.9
2019-02-24T19:41:36.520Z,3.9
2019-02-24T19:42:36.587Z,6.6
2019-02-24T19:43:36.511Z,6.6
2019-02-24T19:44:36.611Z,6.6
2019-02-24T19:45:36.715Z,9.5
2019-02-24T19:46:36.558Z,9.5
2019-02-24T19:47:36.476Z,12.4
2019-02-24T19:48:44.401Z,9.5
2019-02-24T19:49:38.881Z,6.6
2019-02-24T19:50:36.491Z,3.9
2019-02-24T19:51:36.623Z,6.6
2019-02-24T19:52:36.536Z,6.6
2019-02-24T19:53:36.620Z,6.6
2019-02-24T19:54:36.522Z,6.6
2019-02-24T19:55:36.681Z,3.9
2019-02-24T19:56:36.420Z,3.9
2019-02-24T19:57:36.410Z,3.9
2019-02-24T19:58:36.528Z,3.9
2019-02-24T19:59:36.446Z,3.9
2019-02-24T20:00:36.637Z,3.9
2019-02-24T20:01:36.560Z,9.5
2019-02-24T20:02:36.638Z,3.9
2019-02-24T20:03:36.500Z,3.9
2019-02-24T20:04:36.728Z,1.8
2019-02-24T20:05:37.354Z,3.9
2019-02-24T20:06:36.623Z,9.5
2019-02-24T20:07:37.343Z,3.9
2019-02-24T20:08:36.357Z,1.8
2019-02-24T20:09:36.561Z,6.6
2019-02-24T20:10:36.380Z,1.8
2019-02-24T20:11:36.530Z,6.6
2019-02-24T20:12:36.395Z,3.9
2019-02-24T20:13:36.482Z,9.5
2019-02-24T20:14:36.399Z,6.6
2019-02-24T20:15:38.233Z,6.6
2019-02-24T20:16:36.387Z,3.9
2019-02-24T20:17:36.401Z,6.6
2019-02-24T20:18:36.415Z,1.8
2019-02-24T20:19:36.617Z,3.9
2019-02-24T20:20:36.417Z,3.9
2019-02-24T20:21:36.475Z,12.4
2019-02-24T20:22:36.550Z,9.5
2019-02-24T20:23:36.406Z,1.8
2019-02-24T20:24:36.433Z,3.9
2019-02-24T20:25:40.335Z,3.9
2019-02-24T20:26:36.418Z,3.9
2019-02-24T20:27:37.045Z,9.5
2019-02-24T20:28:36.402Z,12.4
2019-02-24T20:29:40.926Z,6.6
2019-02-24T20:30:41.682Z,6.6
2019-02-24T20:31:39.143Z,9.5
2019-02-24T20:32:38.374Z,6.6
2019-02-24T20:33:39.614Z,6.6
2019-02-24T20:34:38.298Z,12.4
2019-02-24T20:35:36.481Z,9.5
2019-02-24T20:36:36.426Z,9.5
2019-02-24T20:37:36.435Z,9.5
2019-02-24T20:38:36.457Z,9.5
2019-02-24T20:39:36.524Z,6.6
2019-02-24T20:40:36.458Z,6.6
2019-02-24T20:41:36.457Z,3.9
2019-02-24T20:42:36.459Z,3.9
2019-02-24T20:43:36.372Z,6.6
2019-02-24T20:44:36.523Z,6.6
2019-02-24T20:45:36.452Z,6.6
2019-02-24T20:46:36.536Z,9.5
2019-02-24T20:47:36.434Z,6.6
2019-02-24T20:48:36.403Z,3.9
2019-02-24T20:49:36.335Z,0
2019-02-24T20:50:36.475Z,0
2019-02-24T20:51:36.463Z,0
2019-02-24T20:52:36.435Z,3.9
2019-02-24T20:53:36.490Z,6.6
2019-02-24T20:54:36.431Z,1.8
2019-02-24T20:55:36.416Z,0
2019-02-24T20:56:36.529Z,6.6
2019-02-24T20:57:36.398Z,6.6
2019-02-24T20:58:36.629Z,3.9
2019-02-24T20:59:43.315Z,6.6
2019-02-24T21:00:37.513Z,6.6
2019-02-24T21:01:36.452Z,6.6
2019-02-24T21:02:36.412Z,6.6
2019-02-24T21:03:37.002Z,6.6
2019-02-24T21:04:39.251Z,9.5
2019-02-24T21:05:37.842Z,9.5
2019-02-24T21:06:36.392Z,9.5
2019-02-24T21:07:37.608Z,9.5
2019-02-24T21:08:39.322Z,12.4
2019-02-24T21:09:37.623Z,12.4
2019-02-24T21:10:37.390Z,15.4
2019-02-24T21:11:40.547Z,12.4
2019-02-24T21:12:37.084Z,12.4
2019-02-24T21:13:37.315Z,12.4
2019-02-24T21:14:37.443Z,12.4
2019-02-24T21:15:38.043Z,12.4
2019-02-24T21:16:37.332Z,9.5
2019-02-24T21:17:37.580Z,12.4
2019-02-24T21:18:37.479Z,9.5
2019-02-24T21:19:37.484Z,6.6
2019-02-24T21:20:37.291Z,9.5
2019-02-24T21:21:37.226Z,9.5
2019-02-24T21:22:37.187Z,9.5
2019-02-24T21:23:37.199Z,9.5
2019-02-24T21:24:37.326Z,9.5
2019-02-24T21:25:37.694Z,3.9
2019-02-24T21:26:36.977Z,3.9
2019-02-24T21:27:37.141Z,1.8
2019-02-24T21:28:37.077Z,3.9
2019-02-24T21:29:38.248Z,1.8
2019-02-24T21:30:37.569Z,0
2019-02-24T21:31:39.372Z,3.9
2019-02-24T21:32:38.145Z,6.6
2019-02-24T21:33:37.350Z,12.4
2019-02-24T21:34:40.376Z,9.5
2019-02-24T21:35:37.799Z,9.5
2019-02-24T21:36:39.165Z,6.6
2019-02-24T21:38:40.844Z,6.6
2019-02-24T21:39:41.534Z,0
2019-02-24T21:40:40.736Z,6.6
2019-02-24T21:41:40.869Z,3.9
2019-02-24T21:42:40.995Z,15.4
2019-02-24T21:43:42.280Z,3.9
2019-02-24T21:44:41.189Z,6.6
2019-02-24T21:45:42.903Z,9.5
2019-02-24T21:46:41.192Z,6.6
2019-02-24T21:47:41.320Z,6.6
2019-02-24T21:48:41.299Z,12.4
2019-02-24T21:49:41.159Z,3.9
2019-02-24T21:50:40.504Z,6.6
2019-02-24T21:51:40.951Z,6.6
2019-02-24T21:52:41.194Z,3.9
2019-02-24T21:53:41.173Z,3.9
2019-02-24T21:54:40.804Z,1.8
2019-02-24T21:55:40.991Z,3.9
2019-02-24T21:56:40.033Z,1.8
2019-02-24T21:57:40.252Z,3.9
2019-02-24T21:58:43.496Z,3.9
2019-02-24T21:59:41.111Z,1.8
2019-02-24T22:00:40.716Z,9.5
2019-02-24T22:01:40.791Z,3.9
2019-02-24T22:02:41.139Z,3.9
2019-02-24T22:03:41.037Z,9.5
2019-02-24T22:04:39.976Z,9.5
2019-02-24T22:05:40.020Z,3.9
2019-02-24T22:06:40.014Z,6.6
2019-02-24T22:07:40.020Z,3.9
2019-02-24T22:08:40.085Z,3.9
2019-02-24T22:09:39.987Z,3.9
2019-02-24T22:10:39.998Z,3.9
2019-02-24T22:11:40.009Z,3.9
2019-02-24T22:12:39.986Z,3.9
2019-02-24T22:13:40.017Z,3.9
2019-02-24T22:14:40.040Z,6.6
2019-02-24T22:15:40.064Z,9.5
2019-02-24T22:16:40.001Z,9.5
2019-02-24T22:17:40.011Z,9.5
2019-02-24T22:18:40.191Z,9.5
2019-02-24T22:19:39.946Z,6.6
2019-02-24T22:20:40.078Z,9.5
2019-02-24T22:21:39.975Z,9.5
2019-02-24T22:22:40.009Z,12.4
2019-02-24T22:23:40.015Z,12.4
2019-02-24T22:24:40.010Z,12.4
2019-02-24T22:25:40.067Z,9.5
2019-02-24T22:26:39.985Z,6.6
2019-02-24T22:27:39.989Z,9.5
2019-02-24T22:28:39.986Z,9.5
2019-02-24T22:29:40.009Z,9.5
2019-02-24T22:30:40.089Z,9.5
2019-02-24T22:31:39.982Z,9.5
2019-02-24T22:32:39.913Z,12.4
2019-02-24T22:33:40.010Z,12.4
2019-02-24T22:34:39.985Z,9.5
2019-02-24T22:35:40.141Z,9.5
2019-02-24T22:36:39.995Z,9.5
2019-02-24T22:37:40.030Z,6.6
2019-02-24T22:38:39.998Z,9.5
2019-02-24T22:39:39.989Z,6.6
2019-02-24T22:40:40.038Z,9.5
2019-02-24T22:41:40.028Z,12.4
2019-02-24T22:42:40.034Z,12.4
2019-02-24T22:43:40.000Z,15.4
2019-02-24T22:44:40.207Z,15.4
2019-02-24T22:45:40.013Z,12.4
2019-02-24T22:46:40.004Z,9.5
2019-02-24T22:47:39.994Z,3.9
2019-02-24T22:48:39.897Z,3.9
2019-02-24T22:49:40.040Z,3.9
2019-02-24T22:50:40.000Z,3.9
2019-02-24T22:51:40.029Z,3.9
2019-02-24T22:52:39.963Z,6.6
2019-02-24T22:53:40.053Z,3.9
2019-02-24T22:54:39.916Z,3.9
2019-02-24T22:55:39.979Z,3.9
2019-02-24T22:56:40.012Z,3.9
2019-02-24T22:57:39.997Z,6.6
2019-02-24T22:58:40.091Z,3.9
2019-02-24T22:59:39.950Z,3.9
2019-02-24T23:00:40.031Z,3.9
2019-02-24T23:01:39.963Z,6.6
2019-02-24T23:02:39.928Z,1.8
2019-02-24T23:03:40.081Z,6.6
2019-02-24T23:04:39.959Z,6.6
2019-02-24T23:05:39.990Z,3.9
2019-02-24T23:06:40.025Z,3.9
2019-02-24T23:07:39.963Z,1.8
2019-02-24T23:08:40.088Z,3.9
2019-02-24T23:09:39.980Z,3.9
2019-02-24T23:10:39.991Z,3.9
2019-02-24T23:11:39.959Z,3.9
2019-02-24T23:12:40.047Z,6.6
2019-02-24T23:13:41.806Z,1.8
2019-02-24T23:14:39.969Z,9.5
2019-02-24T23:15:39.917Z,9.5
2019-02-24T23:16:39.917Z,9.5
2019-02-24T23:17:39.935Z,12.4
2019-02-24T23:18:40.076Z,15.4
2019-02-24T23:19:39.973Z,6.6
2019-02-24T23:20:40.067Z,6.6
2019-02-24T23:21:39.934Z,0
2019-02-24T23:22:39.984Z,1.8
2019-02-24T23:23:40.073Z,6.6
2019-02-24T23:24:39.994Z,3.9
2019-02-24T23:25:39.958Z,6.6
2019-02-24T23:26:39.900Z,9.5
2019-02-24T23:27:40.025Z,9.5
2019-02-24T23:28:40.049Z,12.4
2019-02-24T23:29:40.005Z,12.4
2019-02-24T23:30:40.068Z,12.4
2019-02-24T23:31:39.939Z,12.4
2019-02-24T23:32:39.937Z,15.4
2019-02-24T23:33:39.978Z,15.4
2019-02-24T23:34:39.943Z,18.3
2019-02-24T23:35:39.959Z,18.3
2019-02-24T23:36:40.040Z,21.3
2019-02-24T23:37:39.949Z,18.3
2019-02-24T23:38:39.928Z,18.3
2019-02-24T23:39:39.971Z,12.4
2019-02-24T23:40:39.988Z,15.4
2019-02-24T23:41:40.018Z,18.3
2019-02-24T23:42:39.954Z,15.4
2019-02-24T23:43:39.929Z,12.4
2019-02-24T23:44:39.986Z,9.5
2019-02-24T23:45:39.949Z,3.9
2019-02-24T23:46:40.017Z,3.9
2019-02-24T23:47:39.928Z,1.8
2019-02-24T23:48:39.907Z,3.9
2019-02-24T23:49:40.044Z,6.6
2019-02-24T23:50:39.973Z,3.9
2019-02-24T23:51:39.923Z,6.6
2019-02-24T23:52:39.988Z,3.9
2019-02-24T23:53:39.998Z,1.8
2019-02-24T23:54:41.388Z,1.8
2019-02-24T23:55:40.024Z,1.8
2019-02-24T23:56:39.970Z,3.9
2019-02-24T23:57:40.051Z,3.9
2019-02-24T23:58:39.936Z,6.6
2019-02-24T23:59:39.921Z,6.6
